createdAt,value
2018-03-02T00:00:15.381Z,35.40
2018-03-02T00:01:15.392Z,36.00
2018-03-02T00:02:15.467Z,40.50
2018-03-02T00:03:15.390Z,34.40
2018-03-02T00:04:15.420Z,36.20
2018-03-02T00:05:15.410Z,37.80
2018-03-02T00:06:15.434Z,34.80
2018-03-02T00:07:15.440Z,34.90
2018-03-02T00:08:15.448Z,38.30
2018-03-02T00:09:15.470Z,35.40
2018-03-02T00:10:15.449Z,33.90
2018-03-02T00:11:15.448Z,33.70
2018-03-02T00:12:15.465Z,35.80
2018-03-02T00:13:15.499Z,42.30
2018-03-02T00:14:15.481Z,36.90
2018-03-02T00:15:15.485Z,40.40
2018-03-02T00:16:15.503Z,38.60
2018-03-02T00:17:15.493Z,34.50
2018-03-02T00:18:15.527Z,32.10
2018-03-02T00:19:15.535Z,35.60
2018-03-02T00:20:15.526Z,39.60
2018-03-02T00:21:15.523Z,41.70
2018-03-02T00:22:15.533Z,38.30
2018-03-02T00:23:15.542Z,42.90
2018-03-02T00:24:15.560Z,37.50
2018-03-02T00:25:15.552Z,37.30
2018-03-02T00:26:15.585Z,35.50
2018-03-02T00:27:15.579Z,36.90
2018-03-02T00:28:15.610Z,40.20
2018-03-02T00:29:15.581Z,36.90
2018-03-02T00:30:15.591Z,37.90
2018-03-02T00:31:15.600Z,36.30
2018-03-02T00:32:15.605Z,37.10
2018-03-02T00:33:15.613Z,38.20
2018-03-02T00:34:15.648Z,37.40
2018-03-02T00:35:15.634Z,35.20
2018-03-02T00:36:15.638Z,39.70
2018-03-02T00:37:15.642Z,34.00
2018-03-02T00:38:15.642Z,37.50
2018-03-02T00:39:15.659Z,44.60
2018-03-02T00:40:15.661Z,35.50
2018-03-02T00:41:15.688Z,41.30
2018-03-02T00:42:15.673Z,37.90
2018-03-02T00:43:15.691Z,42.70
2018-03-02T00:44:15.782Z,38.20
2018-03-02T00:45:15.694Z,40.50
2018-03-02T00:46:15.707Z,37.70
2018-03-02T00:47:15.750Z,37.40
2018-03-02T00:48:15.737Z,37.50
2018-03-02T00:49:15.735Z,43.60
2018-03-02T00:50:15.756Z,40.10
2018-03-02T00:51:15.752Z,38.50
2018-03-02T00:52:15.767Z,38.30
2018-03-02T00:53:15.770Z,36.90
2018-03-02T00:54:15.790Z,41.50
2018-03-02T00:55:15.776Z,38.40
2018-03-02T00:56:15.791Z,42.40
2018-03-02T00:57:15.781Z,39.00
2018-03-02T00:58:15.838Z,39.70
2018-03-02T00:59:15.828Z,37.10
2018-03-02T01:00:15.806Z,38.00
2018-03-02T01:01:15.817Z,41.60
2018-03-02T01:02:15.815Z,38.50
2018-03-02T01:03:15.831Z,43.20
2018-03-02T01:04:15.832Z,37.90
2018-03-02T01:05:15.847Z,37.20
2018-03-02T01:06:15.881Z,41.90
2018-03-02T01:07:15.857Z,39.60
2018-03-02T01:08:15.866Z,44.30
2018-03-02T01:09:15.900Z,39.90
2018-03-02T01:10:15.890Z,41.50
2018-03-02T01:11:15.882Z,39.10
2018-03-02T01:12:15.889Z,38.70
2018-03-02T01:13:15.912Z,39.80
2018-03-02T01:14:15.929Z,40.40
2018-03-02T01:15:15.915Z,38.00
2018-03-02T01:16:15.945Z,39.10
2018-03-02T01:17:15.943Z,40.60
2018-03-02T01:18:15.947Z,39.00
2018-03-02T01:19:15.955Z,43.00
2018-03-02T01:20:15.962Z,41.80
2018-03-02T01:21:15.965Z,42.90
2018-03-02T01:22:15.962Z,39.70
2018-03-02T01:23:15.982Z,37.00
2018-03-02T01:24:15.994Z,41.30
2018-03-02T01:25:15.982Z,42.30
2018-03-02T01:26:16.010Z,41.80
2018-03-02T01:27:16.030Z,40.60
2018-03-02T01:28:16.005Z,41.90
2018-03-02T01:29:16.018Z,38.80
2018-03-02T01:30:16.041Z,39.40
2018-03-02T01:31:16.042Z,39.00
2018-03-02T01:32:16.076Z,40.50
2018-03-02T01:33:16.069Z,42.50
2018-03-02T01:34:16.052Z,40.30
2018-03-02T01:35:16.092Z,41.40
2018-03-02T01:36:16.067Z,40.00
2018-03-02T01:37:16.074Z,40.40
2018-03-02T01:38:16.176Z,36.80
2018-03-02T01:39:16.121Z,45.00
2018-03-02T01:40:16.140Z,42.40
2018-03-02T01:41:16.107Z,41.90
2018-03-02T01:42:16.117Z,45.10
2018-03-02T01:43:16.123Z,40.60
2018-03-02T01:44:16.117Z,39.70
2018-03-02T01:45:16.242Z,42.40
2018-03-02T01:46:16.144Z,45.00
2018-03-02T01:47:16.165Z,38.10
2018-03-02T01:48:16.157Z,42.40
2018-03-02T01:49:16.159Z,42.90
2018-03-02T01:50:16.174Z,38.40
2018-03-02T01:51:16.176Z,41.40
2018-03-02T01:52:16.187Z,42.80
2018-03-02T01:53:16.202Z,43.00
2018-03-02T01:54:16.196Z,39.50
2018-03-02T01:55:16.213Z,40.00
2018-03-02T01:56:16.294Z,44.00
2018-03-02T01:57:16.239Z,40.70
2018-03-02T01:58:16.239Z,42.40
2018-03-02T01:59:16.288Z,40.10
2018-03-02T02:00:16.232Z,45.20
2018-03-02T02:01:16.255Z,42.40
2018-03-02T02:02:16.248Z,44.00
2018-03-02T02:03:16.288Z,42.40
2018-03-02T02:04:16.281Z,40.50
2018-03-02T02:05:16.268Z,47.80
2018-03-02T02:06:16.286Z,42.70
2018-03-02T02:07:16.286Z,42.10
2018-03-02T02:08:16.327Z,41.30
2018-03-02T02:09:16.301Z,43.30
2018-03-02T02:10:16.323Z,44.70
2018-03-02T02:11:16.366Z,46.00
2018-03-02T02:12:16.361Z,46.70
2018-03-02T02:13:16.341Z,42.00
2018-03-02T02:14:16.358Z,43.50
2018-03-02T02:15:16.389Z,39.30
2018-03-02T02:16:16.402Z,45.40
2018-03-02T02:17:16.417Z,45.20
2018-03-02T02:18:16.376Z,44.60
2018-03-02T02:19:16.440Z,40.50
2018-03-02T02:20:16.450Z,41.20
2018-03-02T02:21:16.429Z,44.00
2018-03-02T02:22:16.404Z,45.50
2018-03-02T02:23:16.440Z,43.80
2018-03-02T02:24:16.444Z,46.20
2018-03-02T02:25:16.431Z,37.90
2018-03-02T02:26:16.499Z,42.90
2018-03-02T02:27:16.448Z,44.00
2018-03-02T02:28:16.475Z,44.10
2018-03-02T02:29:16.469Z,37.40
2018-03-02T02:30:16.494Z,44.80
2018-03-02T02:31:16.499Z,43.00
2018-03-02T02:32:16.499Z,44.70
2018-03-02T02:33:16.489Z,48.90
2018-03-02T02:34:16.516Z,43.60
2018-03-02T02:35:16.516Z,45.30
2018-03-02T02:36:16.533Z,44.80
2018-03-02T02:37:16.550Z,44.60
2018-03-02T02:38:16.557Z,42.60
2018-03-02T02:39:16.567Z,42.80
2018-03-02T02:40:16.650Z,40.10
2018-03-02T02:41:16.584Z,47.10
2018-03-02T02:42:16.561Z,47.20
2018-03-02T02:43:16.578Z,43.80
2018-03-02T02:44:16.607Z,42.00
2018-03-02T02:45:16.583Z,44.60
2018-03-02T02:46:16.593Z,44.40
2018-03-02T02:47:16.593Z,40.90
2018-03-02T02:48:16.609Z,50.20
2018-03-02T02:49:16.615Z,43.50
2018-03-02T02:50:16.625Z,46.50
2018-03-02T02:51:16.663Z,45.30
2018-03-02T02:52:16.649Z,48.60
2018-03-02T02:53:16.653Z,45.10
2018-03-02T02:54:16.659Z,47.70
2018-03-02T02:55:16.699Z,44.20
2018-03-02T02:56:16.672Z,41.90
2018-03-02T02:57:16.674Z,42.70
2018-03-02T02:58:16.696Z,46.80
2018-03-02T02:59:16.697Z,42.60
2018-03-02T03:00:16.701Z,44.40
2018-03-02T03:01:16.749Z,48.20
2018-03-02T03:02:16.725Z,46.30
2018-03-02T03:03:16.724Z,46.50
2018-03-02T03:04:16.741Z,46.30
2018-03-02T03:05:16.739Z,45.50
2018-03-02T03:06:16.749Z,44.70
2018-03-02T03:07:16.746Z,44.20
2018-03-02T03:08:16.761Z,43.70
2018-03-02T03:09:16.767Z,45.30
2018-03-02T03:10:16.776Z,45.60
2018-03-02T03:11:16.811Z,45.40
2018-03-02T03:12:16.789Z,43.90
2018-03-02T03:13:16.829Z,48.30
2018-03-02T03:14:16.883Z,41.60
2018-03-02T03:15:16.807Z,46.80
2018-03-02T03:16:16.831Z,45.50
2018-03-02T03:17:16.832Z,50.80
2018-03-02T03:18:16.896Z,47.90
2018-03-02T03:19:16.841Z,43.30
2018-03-02T03:20:16.863Z,49.90
2018-03-02T03:21:16.866Z,43.30
2018-03-02T03:22:16.854Z,50.90
2018-03-02T03:23:16.886Z,47.30
2018-03-02T03:24:16.914Z,43.90
2018-03-02T03:25:16.889Z,44.20
2018-03-02T03:26:16.892Z,45.30
2018-03-02T03:27:16.895Z,45.00
2018-03-02T03:28:16.919Z,48.00
2018-03-02T03:29:16.912Z,46.10
2018-03-02T03:30:16.923Z,51.50
2018-03-02T03:31:16.924Z,44.80
2018-03-02T03:32:16.983Z,47.00
2018-03-02T03:33:16.964Z,42.20
2018-03-02T03:34:16.974Z,47.10
2018-03-02T03:35:16.999Z,43.90
2018-03-02T03:36:16.970Z,45.20
2018-03-02T03:37:16.982Z,47.70
2018-03-02T03:38:16.989Z,44.10
2018-03-02T03:39:16.993Z,46.70
2018-03-02T03:40:17.001Z,45.50
2018-03-02T03:41:17.013Z,47.60
2018-03-02T03:42:17.016Z,48.10
2018-03-02T03:43:17.061Z,46.80
2018-03-02T03:44:17.058Z,44.70
2018-03-02T03:45:17.047Z,50.40
2018-03-02T03:46:17.115Z,45.30
2018-03-02T03:47:17.056Z,43.20
2018-03-02T03:48:17.105Z,44.50
2018-03-02T03:49:17.093Z,46.90
2018-03-02T03:50:17.075Z,49.80
2018-03-02T03:51:17.118Z,47.70
2018-03-02T03:52:17.096Z,47.10
2018-03-02T03:53:17.099Z,46.20
2018-03-02T03:54:17.108Z,44.00
2018-03-02T03:55:17.125Z,48.30
2018-03-02T03:56:17.120Z,51.70
2018-03-02T03:57:17.121Z,48.80
2018-03-02T03:58:17.150Z,53.70
2018-03-02T03:59:17.149Z,47.30
2018-03-02T04:00:17.147Z,47.10
2018-03-02T04:01:17.185Z,50.30
2018-03-02T04:02:17.162Z,45.50
2018-03-02T04:03:17.182Z,51.00
2018-03-02T04:04:17.269Z,45.80
2018-03-02T04:05:17.185Z,49.70
2018-03-02T04:06:17.214Z,48.10
2018-03-02T04:07:17.210Z,50.30
2018-03-02T04:08:17.235Z,47.10
2018-03-02T04:09:17.236Z,46.80
2018-03-02T04:10:17.283Z,45.50
2018-03-02T04:11:17.241Z,46.80
2018-03-02T04:12:17.264Z,48.00
2018-03-02T04:13:17.260Z,51.50
2018-03-02T04:14:17.278Z,50.30
2018-03-02T04:15:17.278Z,51.30
2018-03-02T04:16:17.289Z,50.60
2018-03-02T04:17:17.290Z,49.00
2018-03-02T04:18:17.292Z,43.40
2018-03-02T04:19:17.312Z,48.90
2018-03-02T04:20:17.310Z,48.50
2018-03-02T04:21:17.328Z,45.30
2018-03-02T04:22:17.339Z,43.90
2018-03-02T04:23:17.362Z,46.40
2018-03-02T04:24:17.350Z,49.30
2018-03-02T04:25:17.339Z,48.90
2018-03-02T04:26:17.357Z,48.00
2018-03-02T04:27:17.376Z,47.50
2018-03-02T04:28:17.361Z,45.70
2018-03-02T04:29:17.367Z,45.50
2018-03-02T04:30:17.419Z,47.50
2018-03-02T04:31:17.408Z,45.30
2018-03-02T04:32:17.400Z,50.50
2018-03-02T04:33:17.418Z,51.20
2018-03-02T04:34:17.440Z,46.30
2018-03-02T04:35:17.498Z,49.40
2018-03-02T04:36:17.444Z,57.60
2018-03-02T04:37:17.427Z,47.00
2018-03-02T04:38:17.442Z,49.60
2018-03-02T04:39:17.445Z,55.10
2018-03-02T04:40:17.514Z,48.50
2018-03-02T04:41:17.486Z,49.70
2018-03-02T04:42:17.464Z,51.90
2018-03-02T04:43:17.497Z,53.20
2018-03-02T04:44:17.476Z,48.70
2018-03-02T04:45:17.522Z,47.00
2018-03-02T04:46:17.520Z,49.80
2018-03-02T04:47:17.540Z,50.20
2018-03-02T04:48:17.520Z,48.20
2018-03-02T04:49:17.517Z,51.30
2018-03-02T04:50:17.536Z,47.10
2018-03-02T04:51:17.531Z,48.70
2018-03-02T04:52:17.582Z,48.90
2018-03-02T04:53:17.591Z,50.70
2018-03-02T04:54:17.555Z,49.50
2018-03-02T04:55:17.625Z,49.50
2018-03-02T04:56:17.598Z,52.10
2018-03-02T04:57:17.589Z,47.30
2018-03-02T04:58:17.612Z,52.40
2018-03-02T04:59:17.598Z,48.80
2018-03-02T05:00:17.601Z,51.20
2018-03-02T05:01:17.626Z,51.10
2018-03-02T05:02:17.636Z,56.40
2018-03-02T05:03:17.639Z,50.10
2018-03-02T05:04:17.634Z,48.90
2018-03-02T05:05:17.662Z,55.90
2018-03-02T05:06:17.646Z,48.20
2018-03-02T05:07:17.661Z,53.90
2018-03-02T05:08:17.681Z,50.70
2018-03-02T05:09:17.675Z,50.00
2018-03-02T05:10:17.665Z,48.90
2018-03-02T05:11:17.707Z,52.40
2018-03-02T05:12:17.744Z,54.50
2018-03-02T05:13:17.721Z,47.10
2018-03-02T05:14:17.712Z,50.00
2018-03-02T05:15:17.724Z,51.50
2018-03-02T05:16:17.721Z,52.30
2018-03-02T05:17:17.722Z,48.50
2018-03-02T05:18:17.731Z,49.80
2018-03-02T05:19:17.754Z,49.70
2018-03-02T05:20:17.737Z,49.70
2018-03-02T05:21:17.753Z,53.30
2018-03-02T05:22:17.767Z,54.70
2018-03-02T05:23:17.770Z,52.40
2018-03-02T05:24:17.790Z,53.60
2018-03-02T05:25:17.780Z,50.20
2018-03-02T05:26:17.783Z,53.40
2018-03-02T05:27:17.806Z,54.80
2018-03-02T05:28:17.805Z,52.20
2018-03-02T05:29:17.822Z,48.30
2018-03-02T05:30:17.826Z,54.40
2018-03-02T05:31:17.829Z,53.10
2018-03-02T05:32:17.831Z,49.40
2018-03-02T05:33:17.857Z,52.70
2018-03-02T05:34:17.851Z,51.90
2018-03-02T05:35:17.877Z,52.30
2018-03-02T05:36:17.927Z,53.00
2018-03-02T05:37:17.870Z,54.50
2018-03-02T05:38:17.886Z,52.50
2018-03-02T05:39:17.948Z,50.80
2018-03-02T05:40:17.897Z,52.80
2018-03-02T05:41:17.909Z,51.40
2018-03-02T05:42:17.910Z,53.20
2018-03-02T05:43:17.936Z,47.90
2018-03-02T05:44:17.937Z,51.10
2018-03-02T05:45:17.925Z,51.50
2018-03-02T05:46:17.944Z,53.10
2018-03-02T05:47:17.942Z,53.20
2018-03-02T05:48:17.960Z,56.30
2018-03-02T05:49:17.953Z,54.90
2018-03-02T05:50:18.024Z,52.70
2018-03-02T05:51:17.969Z,53.90
2018-03-02T05:52:18.008Z,54.10
2018-03-02T05:53:18.010Z,49.00
2018-03-02T05:54:17.996Z,53.90
2018-03-02T05:55:18.082Z,52.10
2018-03-02T05:56:18.052Z,51.50
2018-03-02T05:57:18.028Z,53.30
2018-03-02T05:58:18.072Z,50.30
2018-03-02T05:59:18.032Z,54.90
2018-03-02T06:00:18.041Z,52.90
2018-03-02T06:01:18.057Z,52.70
2018-03-02T06:02:18.052Z,52.40
2018-03-02T06:03:18.074Z,54.20
2018-03-02T06:04:18.071Z,53.60
2018-03-02T06:05:18.103Z,51.90
2018-03-02T06:06:18.087Z,60.30
2018-03-02T06:07:18.111Z,49.80
2018-03-02T06:08:18.096Z,54.60
2018-03-02T06:09:18.210Z,51.70
2018-03-02T06:10:18.117Z,53.90
2018-03-02T06:11:18.117Z,48.00
2018-03-02T06:12:18.131Z,62.00
2018-03-02T06:13:18.135Z,52.40
2018-03-02T06:14:18.153Z,57.50
2018-03-02T06:15:18.194Z,60.00
2018-03-02T06:16:18.170Z,70.70
2018-03-02T06:17:18.167Z,58.10
2018-03-02T06:18:18.211Z,55.00
2018-03-02T06:19:18.264Z,59.20
2018-03-02T06:20:18.233Z,60.80
2018-03-02T06:21:18.193Z,58.30
2018-03-02T06:22:18.222Z,54.00
2018-03-02T06:23:18.230Z,50.60
2018-03-02T06:24:18.214Z,56.30
2018-03-02T06:25:18.222Z,60.70
2018-03-02T06:26:18.240Z,51.70
2018-03-02T06:27:18.310Z,54.20
2018-03-02T06:28:18.257Z,46.30
2018-03-02T06:29:18.276Z,65.00
2018-03-02T06:30:18.270Z,75.10
2018-03-02T06:31:18.274Z,58.90
2018-03-02T06:32:18.291Z,54.40
2018-03-02T06:33:18.284Z,54.80
2018-03-02T06:34:18.302Z,52.70
2018-03-02T06:35:18.331Z,54.00
2018-03-02T06:36:18.329Z,49.80
2018-03-02T06:37:18.327Z,50.10
2018-03-02T06:38:18.329Z,51.50
2018-03-02T06:39:18.333Z,53.00
2018-03-02T06:40:18.375Z,48.90
2018-03-02T06:41:18.345Z,54.00
2018-03-02T06:42:18.360Z,56.40
2018-03-02T06:43:18.380Z,54.30
2018-03-02T06:44:18.392Z,51.80
2018-03-02T06:45:18.379Z,50.00
2018-03-02T06:46:18.385Z,55.10
2018-03-02T06:47:18.396Z,52.50
2018-03-02T06:48:18.419Z,51.40
2018-03-02T06:49:18.431Z,55.00
2018-03-02T06:50:18.461Z,51.20
2018-03-02T06:51:18.418Z,54.60
2018-03-02T06:52:18.426Z,51.80
2018-03-02T06:53:18.442Z,49.60
2018-03-02T06:54:18.473Z,58.40
2018-03-02T06:55:18.454Z,51.20
2018-03-02T06:56:18.465Z,53.10
2018-03-02T06:57:18.466Z,49.50
2018-03-02T06:58:18.485Z,51.40
2018-03-02T06:59:18.521Z,49.40
2018-03-02T07:00:18.513Z,49.40
2018-03-02T07:01:18.510Z,51.10
2018-03-02T07:02:18.554Z,55.70
2018-03-02T07:03:18.539Z,48.80
2018-03-02T07:04:18.586Z,57.40
2018-03-02T07:05:18.547Z,54.10
2018-03-02T07:06:18.571Z,49.80
2018-03-02T07:07:18.569Z,54.70
2018-03-02T07:08:18.588Z,50.10
2018-03-02T07:09:18.604Z,49.30
2018-03-02T07:10:18.605Z,51.90
2018-03-02T07:11:18.636Z,60.70
2018-03-02T07:12:18.621Z,48.80
2018-03-02T07:13:18.649Z,53.80
2018-03-02T07:14:18.691Z,54.10
2018-03-02T07:15:18.675Z,58.70
2018-03-02T07:16:18.689Z,50.20
2018-03-02T07:17:18.795Z,52.60
2018-03-02T07:18:18.743Z,54.80
2018-03-02T07:19:18.715Z,57.10
2018-03-02T07:20:18.788Z,51.00
2018-03-02T07:21:18.736Z,54.60
2018-03-02T07:22:18.738Z,55.40
2018-03-02T07:23:18.753Z,55.30
2018-03-02T07:24:18.786Z,51.40
2018-03-02T07:25:18.775Z,50.00
2018-03-02T07:26:18.793Z,53.90
2018-03-02T07:27:18.797Z,47.30
2018-03-02T07:28:18.816Z,51.80
2018-03-02T07:29:18.869Z,52.20
2018-03-02T07:30:18.840Z,50.20
2018-03-02T07:31:18.853Z,54.40
2018-03-02T07:32:18.862Z,55.90
2018-03-02T07:33:18.861Z,56.50
2018-03-02T07:34:18.875Z,50.60
2018-03-02T07:35:18.890Z,54.10
2018-03-02T07:36:18.887Z,54.40
2018-03-02T07:37:18.906Z,53.80
2018-03-02T07:38:18.919Z,53.10
2018-03-02T07:39:18.923Z,52.40
2018-03-02T07:40:18.945Z,53.50
2018-03-02T07:41:19.003Z,55.10
2018-03-02T07:42:18.981Z,52.10
2018-03-02T07:43:18.989Z,51.90
2018-03-02T07:44:19.030Z,51.60
2018-03-02T07:45:19.061Z,53.00
2018-03-02T07:46:19.003Z,53.60
2018-03-02T07:47:19.016Z,53.90
2018-03-02T07:48:19.055Z,54.20
2018-03-02T07:49:19.044Z,56.20
2018-03-02T07:50:19.091Z,54.70
2018-03-02T07:51:19.079Z,50.00
2018-03-02T07:52:19.086Z,54.90
2018-03-02T07:53:19.092Z,56.80
2018-03-02T07:54:19.142Z,53.50
2018-03-02T07:55:19.110Z,50.70
2018-03-02T07:56:19.127Z,49.50
2018-03-02T07:57:19.143Z,51.50
2018-03-02T07:58:19.153Z,52.80
2018-03-02T07:59:19.164Z,55.20
2018-03-02T08:00:19.167Z,52.20
2018-03-02T08:01:19.182Z,53.90
2018-03-02T08:02:19.201Z,54.60
2018-03-02T08:03:19.325Z,53.50
2018-03-02T08:04:19.256Z,50.90
2018-03-02T08:05:19.254Z,55.40
2018-03-02T08:06:19.251Z,57.60
2018-03-02T08:07:19.270Z,53.60
2018-03-02T08:08:19.308Z,55.00
2018-03-02T08:09:19.290Z,55.60
2018-03-02T08:10:19.299Z,53.00
2018-03-02T08:11:19.317Z,54.30
2018-03-02T08:12:19.338Z,52.60
2018-03-02T08:13:19.333Z,54.40
2018-03-02T08:14:19.353Z,49.80
2018-03-02T08:15:19.356Z,60.10
2018-03-02T08:16:19.373Z,54.70
2018-03-02T08:17:19.448Z,52.60
2018-03-02T08:18:19.391Z,55.80
2018-03-02T08:19:19.408Z,54.30
2018-03-02T08:20:19.450Z,57.70
2018-03-02T08:21:19.447Z,49.70
2018-03-02T08:22:19.478Z,56.90
2018-03-02T08:23:19.458Z,54.70
2018-03-02T08:24:19.474Z,61.40
2018-03-02T08:25:19.497Z,52.90
2018-03-02T08:26:19.493Z,55.60
2018-03-02T08:27:19.530Z,55.40
2018-03-02T08:28:19.539Z,58.60
2018-03-02T08:29:19.542Z,55.90
2018-03-02T08:30:19.546Z,55.00
2018-03-02T08:31:19.575Z,56.90
2018-03-02T08:32:19.569Z,58.30
2018-03-02T08:33:19.698Z,61.90
2018-03-02T08:34:19.599Z,56.90
2018-03-02T08:35:19.620Z,56.80
2018-03-02T08:36:19.626Z,59.30
2018-03-02T08:37:19.642Z,58.00
2018-03-02T08:38:19.650Z,56.90
2018-03-02T08:39:19.675Z,58.60
2018-03-02T08:40:19.673Z,56.80
2018-03-02T08:41:19.688Z,57.70
2018-03-02T08:42:19.702Z,60.00
2018-03-02T08:43:19.706Z,61.20
2018-03-02T08:44:19.711Z,57.40
2018-03-02T08:45:19.729Z,58.90
2018-03-02T08:46:19.740Z,59.30
2018-03-02T08:47:19.851Z,61.20
2018-03-02T08:48:19.766Z,61.10
2018-03-02T08:49:19.785Z,58.70
2018-03-02T08:50:19.845Z,60.60
2018-03-02T08:51:19.814Z,62.00
2018-03-02T08:52:19.814Z,58.50
2018-03-02T08:53:19.798Z,66.50
2018-03-02T08:54:19.818Z,60.80
2018-03-02T08:55:19.838Z,58.30
2018-03-02T08:56:19.850Z,65.10
2018-03-02T08:57:19.867Z,62.30
2018-03-02T08:58:19.872Z,63.40
2018-03-02T08:59:19.858Z,60.70
2018-03-02T09:00:19.878Z,54.70
2018-03-02T09:01:19.877Z,56.90
2018-03-02T09:02:19.895Z,55.60
2018-03-02T09:03:19.914Z,57.00
2018-03-02T09:04:19.913Z,60.20
2018-03-02T09:05:19.917Z,60.30
2018-03-02T09:06:19.924Z,59.80
2018-03-02T09:07:19.930Z,54.80
2018-03-02T09:08:19.958Z,60.30
2018-03-02T09:09:19.950Z,60.00
2018-03-02T09:10:19.953Z,59.60
2018-03-02T09:11:19.987Z,59.40
2018-03-02T09:12:19.972Z,63.30
2018-03-02T09:13:19.991Z,63.60
2018-03-02T09:14:20.000Z,60.90
2018-03-02T09:15:20.005Z,58.20
2018-03-02T09:16:20.019Z,55.90
2018-03-02T09:17:20.030Z,58.30
2018-03-02T09:18:20.074Z,60.10
2018-03-02T09:19:20.035Z,58.00
2018-03-02T09:20:20.056Z,51.80
2018-03-02T09:21:20.067Z,54.70
2018-03-02T09:22:20.088Z,56.60
2018-03-02T09:23:20.076Z,58.10
2018-03-02T09:24:20.084Z,62.70
2018-03-02T09:25:20.100Z,59.00
2018-03-02T09:26:20.123Z,52.80
2018-03-02T09:27:20.165Z,52.80
2018-03-02T09:28:20.109Z,54.60
2018-03-02T09:29:20.121Z,53.70
2018-03-02T09:30:20.137Z,55.00
2018-03-02T09:31:20.135Z,51.40
2018-03-02T09:32:20.152Z,55.40
2018-03-02T09:33:20.164Z,52.70
2018-03-02T09:34:20.175Z,54.70
2018-03-02T09:35:20.190Z,61.00
2018-03-02T09:36:20.185Z,55.30
2018-03-02T09:37:20.226Z,54.80
2018-03-02T09:38:20.220Z,58.30
2018-03-02T09:39:20.210Z,56.90
2018-03-02T09:40:20.220Z,60.10
2018-03-02T09:41:20.239Z,55.70
2018-03-02T09:42:20.287Z,54.20
2018-03-02T09:43:20.248Z,53.60
2018-03-02T09:44:20.255Z,53.80
2018-03-02T09:45:20.279Z,57.70
2018-03-02T09:46:20.293Z,57.20
2018-03-02T09:47:20.281Z,56.00
2018-03-02T09:48:20.344Z,57.40
2018-03-02T09:49:20.302Z,56.00
2018-03-02T09:50:20.338Z,63.30
2018-03-02T09:51:20.371Z,51.50
2018-03-02T09:52:20.346Z,56.60
2018-03-02T09:53:20.354Z,52.70
2018-03-02T09:54:20.363Z,54.80
2018-03-02T09:55:20.363Z,54.70
2018-03-02T09:56:20.400Z,52.80
2018-03-02T09:57:20.385Z,57.20
2018-03-02T09:58:20.380Z,53.30
2018-03-02T09:59:20.438Z,55.00
2018-03-02T10:00:20.410Z,57.70
2018-03-02T10:01:20.415Z,52.10
2018-03-02T10:02:20.437Z,55.00
2018-03-02T10:03:20.446Z,50.70
2018-03-02T10:04:20.455Z,52.90
2018-03-02T10:05:20.469Z,54.80
2018-03-02T10:06:20.474Z,53.80
2018-03-02T10:07:20.508Z,52.80
2018-03-02T10:08:20.486Z,57.70
2018-03-02T10:09:20.516Z,54.60
2018-03-02T10:10:20.501Z,52.80
2018-03-02T10:11:20.531Z,51.40
2018-03-02T10:12:20.526Z,54.20
2018-03-02T10:13:20.623Z,47.80
2018-03-02T10:14:20.544Z,53.70
2018-03-02T10:15:20.557Z,57.60
2018-03-02T10:16:20.556Z,55.10
2018-03-02T10:17:20.596Z,52.50
2018-03-02T10:18:20.577Z,55.90
2018-03-02T10:19:20.599Z,58.00
2018-03-02T10:20:20.614Z,59.90
2018-03-02T10:21:20.615Z,56.60
2018-03-02T10:22:20.631Z,52.30
2018-03-02T10:23:20.665Z,53.00
2018-03-02T10:24:20.630Z,55.40
2018-03-02T10:25:20.656Z,53.10
2018-03-02T10:26:20.649Z,51.60
2018-03-02T10:27:20.665Z,50.80
2018-03-02T10:28:20.671Z,56.00
2018-03-02T10:29:20.681Z,52.60
2018-03-02T10:30:20.759Z,53.90
2018-03-02T10:31:20.752Z,59.40
2018-03-02T10:32:20.738Z,55.90
2018-03-02T10:33:20.725Z,55.50
2018-03-02T10:34:20.732Z,57.00
2018-03-02T10:35:20.750Z,57.40
2018-03-02T10:36:20.755Z,53.30
2018-03-02T10:37:20.779Z,56.20
2018-03-02T10:38:20.761Z,55.10
2018-03-02T10:39:20.775Z,55.50
2018-03-02T10:40:20.790Z,62.70
2018-03-02T10:41:20.797Z,61.80
2018-03-02T10:42:20.933Z,57.50
2018-03-02T10:43:20.808Z,55.60
2018-03-02T10:44:20.826Z,60.90
2018-03-02T10:45:20.839Z,53.40
2018-03-02T10:46:20.852Z,58.50
2018-03-02T10:47:21.054Z,59.30
2018-03-02T10:48:20.871Z,57.20
2018-03-02T10:49:20.891Z,60.10
2018-03-02T10:50:20.883Z,62.10
2018-03-02T10:51:20.891Z,60.60
2018-03-02T10:52:20.898Z,57.50
2018-03-02T10:53:20.927Z,57.70
2018-03-02T10:54:20.919Z,57.70
2018-03-02T10:55:20.931Z,56.20
2018-03-02T10:56:20.962Z,55.00
2018-03-02T10:57:20.953Z,57.70
2018-03-02T10:58:20.962Z,59.80
2018-03-02T10:59:20.976Z,59.90
2018-03-02T11:00:20.983Z,58.60
2018-03-02T11:01:20.990Z,60.30
2018-03-02T11:02:21.000Z,59.90
2018-03-02T11:03:21.004Z,56.50
2018-03-02T11:04:21.056Z,61.40
2018-03-02T11:05:21.021Z,57.00
2018-03-02T11:06:21.042Z,60.00
2018-03-02T11:07:21.058Z,57.80
2018-03-02T11:08:21.090Z,60.80
2018-03-02T11:09:21.104Z,57.40
2018-03-02T11:10:21.080Z,58.70
2018-03-02T11:11:21.091Z,59.30
2018-03-02T11:12:21.112Z,59.80
2018-03-02T11:13:21.099Z,58.60
2018-03-02T11:14:21.164Z,60.70
2018-03-02T11:15:21.140Z,62.10
2018-03-02T11:16:21.143Z,59.70
2018-03-02T11:17:21.147Z,63.20
2018-03-02T11:18:21.177Z,69.50
2018-03-02T11:19:21.160Z,60.50
2018-03-02T11:20:21.168Z,64.20
2018-03-02T11:21:21.202Z,60.70
2018-03-02T11:22:21.194Z,61.00
2018-03-02T11:23:21.217Z,64.70
2018-03-02T11:24:21.250Z,61.50
2018-03-02T11:25:21.223Z,61.90
2018-03-02T11:26:21.252Z,63.10
2018-03-02T11:27:21.243Z,62.00
2018-03-02T11:28:21.273Z,66.40
2018-03-02T11:29:21.271Z,62.50
2018-03-02T11:30:21.269Z,63.70
2018-03-02T11:31:21.273Z,60.20
2018-03-02T11:32:21.377Z,64.40
2018-03-02T11:33:21.306Z,63.10
2018-03-02T11:34:21.323Z,60.50
2018-03-02T11:35:21.356Z,59.40
2018-03-02T11:36:21.335Z,63.40
2018-03-02T11:37:21.344Z,59.10
2018-03-02T11:38:21.379Z,63.00
2018-03-02T11:39:21.368Z,63.30
2018-03-02T11:40:21.361Z,65.20
2018-03-02T11:41:21.394Z,60.80
2018-03-02T11:42:21.399Z,60.00
2018-03-02T11:43:21.388Z,63.20
2018-03-02T11:44:21.404Z,58.90
2018-03-02T11:45:21.431Z,61.00
2018-03-02T11:46:21.433Z,62.50
2018-03-02T11:47:21.439Z,65.40
2018-03-02T11:48:21.454Z,64.30
2018-03-02T11:49:21.453Z,61.90
2018-03-02T11:50:21.494Z,65.10
2018-03-02T11:51:21.468Z,66.70
2018-03-02T11:52:21.497Z,64.90
2018-03-02T11:53:21.508Z,59.50
2018-03-02T11:54:21.564Z,63.00
2018-03-02T11:55:21.514Z,61.90
2018-03-02T11:56:21.524Z,62.40
2018-03-02T11:57:21.528Z,60.60
2018-03-02T11:58:21.574Z,59.50
2018-03-02T11:59:21.562Z,62.80
2018-03-02T12:00:21.600Z,62.60
2018-03-02T12:01:21.593Z,65.60
2018-03-02T12:02:21.575Z,69.60
2018-03-02T12:03:21.616Z,64.10
2018-03-02T12:04:21.584Z,70.80
2018-03-02T12:05:21.643Z,68.90
2018-03-02T12:06:21.667Z,63.40
2018-03-02T12:07:21.615Z,66.20
2018-03-02T12:08:21.692Z,66.60
2018-03-02T12:09:21.641Z,67.70
2018-03-02T12:10:21.659Z,65.70
2018-03-02T12:11:21.668Z,66.00
2018-03-02T12:12:21.672Z,73.80
2018-03-02T12:13:21.706Z,70.30
2018-03-02T12:14:21.701Z,67.30
2018-03-02T12:15:21.720Z,66.30
2018-03-02T12:16:21.729Z,66.90
2018-03-02T12:17:21.719Z,73.30
2018-03-02T12:18:21.717Z,72.30
2018-03-02T12:19:21.765Z,65.70
2018-03-02T12:20:21.767Z,68.60
2018-03-02T12:21:21.770Z,66.70
2018-03-02T12:22:21.784Z,71.30
2018-03-02T12:23:21.792Z,67.30
2018-03-02T12:24:21.799Z,74.90
2018-03-02T12:25:21.804Z,70.90
2018-03-02T12:26:21.810Z,66.00
2018-03-02T12:27:21.817Z,70.70
2018-03-02T12:28:21.851Z,65.30
2018-03-02T12:29:21.840Z,73.70
2018-03-02T12:30:21.837Z,72.40
2018-03-02T12:31:21.850Z,78.60
2018-03-02T12:32:21.856Z,91.10
2018-03-02T12:33:21.885Z,84.60
2018-03-02T12:34:21.874Z,81.10
2018-03-02T12:35:21.892Z,91.50
2018-03-02T12:36:21.907Z,87.30
2018-03-02T12:37:21.913Z,70.50
2018-03-02T12:38:21.935Z,78.10
2018-03-02T12:39:22.009Z,69.80
2018-03-02T12:40:21.943Z,85.70
2018-03-02T12:41:21.950Z,84.60
2018-03-02T12:42:21.966Z,71.80
2018-03-02T12:43:22.026Z,73.90
2018-03-02T12:44:21.983Z,70.30
2018-03-02T12:45:21.988Z,75.40
2018-03-02T12:46:21.996Z,74.90
2018-03-02T12:47:22.026Z,71.10
2018-03-02T12:48:22.019Z,70.90
2018-03-02T12:49:22.031Z,73.20
2018-03-02T12:50:22.057Z,71.90
2018-03-02T12:51:22.081Z,74.00
2018-03-02T12:52:22.053Z,73.50